Time;durP1;ratioP1;P1;durP2;ratioP2;P2;SDS_P1;SDS_P2;PMS_P1;PMS_P2;Temp;Humidity;BMP_temperature;BMP_pressure;BME280_temperature;BME280_humidity;BME280_pressure;Samples;Min_cycle;Max_cycle;Signal;HPM_P1;HPM_P2
2024/01/01 00:00:18;;;;;;;3.75;2.33;;;;;;;;;;5007421;28;20050;-65
2024/01/01 00:03:04;;;;;;;5.55;2.95;;;;;;;;;;5017257;28;20488;-65
2024/01/01 00:05:32;;;;;;;3.45;2.90;;;;;;;;;;5003155;28;20046;-63
2024/01/01 00:07:59;;;;;;;5.78;3.30;;;;;;;;;;5001673;28;20279;-63
2024/01/01 00:10:25;;;;;;;5.25;3.72;;;;;;;;;;4996473;28;20100;-65
2024/01/01 00:12:52;;;;;;;4.72;3.15;;;;;;;;;;5000357;28;20049;-66
2024/01/01 00:15:20;;;;;;;3.90;2.95;;;;;;;;;;4996453;28;20056;-66
2024/01/01 00:17:48;;;;;;;3.47;2.53;;;;;;;;;;4991185;28;20161;-64
2024/01/01 00:20:14;;;;;;;3.25;2.45;;;;;;;;;;5002045;28;20058;-66
2024/01/01 00:22:44;;;;;;;3.88;2.47;;;;;;;;;;5001811;28;20058;-63
2024/01/01 00:25:10;;;;;;;3.97;2.40;;;;;;;;;;5005967;28;20132;-68
2024/01/01 00:27:36;;;;;;;3.38;2.50;;;;;;;;;;4995086;28;20042;-65
2024/01/01 00:30:02;;;;;;;4.78;2.65;;;;;;;;;;4997496;28;20401;-66
2024/01/01 00:32:29;;;;;;;4.32;2.45;;;;;;;;;;4995364;28;20058;-64
2024/01/01 00:34:54;;;;;;;2.97;2.10;;;;;;;;;;4997333;28;20774;-68
2024/01/01 00:37:20;;;;;;;4.05;2.50;;;;;;;;;;4999722;28;20057;-67
2024/01/01 00:39:47;;;;;;;4.75;2.60;;;;;;;;;;4991777;28;20129;-62
2024/01/01 00:42:14;;;;;;;4.20;2.45;;;;;;;;;;4993964;28;20053;-67
2024/01/01 00:44:43;;;;;;;3.08;2.10;;;;;;;;;;5007363;28;20691;-64
2024/01/01 00:47:09;;;;;;;4.72;2.45;;;;;;;;;;4993796;28;20092;-66
2024/01/01 00:49:35;;;;;;;3.33;2.13;;;;;;;;;;4997323;28;20061;-65
2024/01/01 00:52:01;;;;;;;6.05;2.67;;;;;;;;;;4995298;28;20118;-64
2024/01/01 00:54:29;;;;;;;3.08;2.33;;;;;;;;;;5002483;28;20054;-64
2024/01/01 00:56:55;;;;;;;4.82;2.55;;;;;;;;;;4994827;28;20551;-63
2024/01/01 00:59:22;;;;;;;5.70;3.30;;;;;;;;;;4998323;28;20067;-63
2024/01/01 01:01:52;;;;;;;8.15;2.60;;;;;;;;;;4999404;28;20448;-63
2024/01/01 01:04:18;;;;;;;3.53;2.55;;;;;;;;;;5000997;28;20160;-64
2024/01/01 01:06:45;;;;;;;5.68;3.40;;;;;;;;;;5002576;28;20041;-64
2024/01/01 01:09:12;;;;;;;6.07;3.20;;;;;;;;;;4998245;28;20435;-63
2024/01/01 01:11:40;;;;;;;5.25;3.45;;;;;;;;;;5002239;28;20492;-63
2024/01/01 01:14:07;;;;;;;8.60;3.55;;;;;;;;;;4992247;28;20054;-64
2024/01/01 01:16:37;;;;;;;6.47;3.63;;;;;;;;;;5001274;28;20129;-64
2024/01/01 01:19:03;;;;;;;4.15;3.10;;;;;;;;;;5004640;28;20717;-64
2024/01/01 01:21:29;;;;;;;7.35;3.47;;;;;;;;;;4996251;28;20416;-65
2024/01/01 01:23:57;;;;;;;4.88;3.03;;;;;;;;;;5003411;28;20508;-64
2024/01/01 01:26:23;;;;;;;6.45;3.75;;;;;;;;;;5001952;28;20070;-62
2024/01/01 01:28:50;;;;;;;7.15;4.07;;;;;;;;;;5002695;28;20228;-65
2024/01/01 01:31:24;;;;;;;8.07;3.92;;;;;;;;;;4997983;28;20074;-64
2024/01/01 01:34:29;;;;;;;5.82;3.60;;;;;;;;;;4998564;28;20042;-64
2024/01/01 01:37:15;;;;;;;;;;;;;;;;;;5011184;28;20172;-63
2024/01/01 01:40:17;;;;;;;5.47;2.92;;;;;;;;;;5004891;28;19921;-64
2024/01/01 01:42:50;;;;;;;5.03;3.20;;;;;;;;;;4995840;28;20054;-64
2024/01/01 01:45:22;;;;;;;8.23;3.10;;;;;;;;;;4996806;28;20459;-62
2024/01/01 01:47:49;;;;;;;5.13;3.10;;;;;;;;;;5002111;28;20522;-67
2024/01/01 01:50:16;;;;;;;5.20;3.50;;;;;;;;;;5002573;28;20050;-62
2024/01/01 01:52:44;;;;;;;5.25;3.45;;;;;;;;;;5002636;28;20065;-64
2024/01/01 01:55:11;;;;;;;6.30;3.55;;;;;;;;;;4994660;28;20046;-64
2024/01/01 01:57:40;;;;;;;4.13;3.00;;;;;;;;;;4983779;28;20073;-65
2024/01/01 02:00:07;;;;;;;5.15;3.30;;;;;;;;;;5003311;28;20062;-66
2024/01/01 02:02:37;;;;;;;7.35;3.58;;;;;;;;;;5003646;28;20519;-63
2024/01/01 02:05:04;;;;;;;6.25;3.38;;;;;;;;;;4998380;28;20053;-63
2024/01/01 02:07:30;;;;;;;5.45;3.30;;;;;;;;;;5006573;28;20096;-65
2024/01/01 02:09:57;;;;;;;4.82;3.40;;;;;;;;;;4998672;28;20768;-64
2024/01/01 02:12:23;;;;;;;5.38;3.47;;;;;;;;;;5004990;28;20046;-64
2024/01/01 02:14:49;;;;;;;4.53;2.90;;;;;;;;;;5005071;28;20049;-64
2024/01/01 02:17:18;;;;;;;4.90;3.17;;;;;;;;;;5006985;28;20061;-66
2024/01/01 02:19:44;;;;;;;5.65;2.80;;;;;;;;;;5000295;28;20177;-63
2024/01/01 02:22:10;;;;;;;4.07;2.63;;;;;;;;;;5004122;28;20066;-63
2024/01/01 02:24:36;;;;;;;4.47;2.58;;;;;;;;;;5007216;28;20061;-64
2024/01/01 02:27:03;;;;;;;3.67;2.50;;;;;;;;;;5001414;28;20077;-64
2024/01/01 02:29:29;;;;;;;3.90;2.47;;;;;;;;;;4999679;28;20089;-63
2024/01/01 02:31:55;;;;;;;4.30;2.75;;;;;;;;;;5001733;28;20129;-63
2024/01/01 02:34:22;;;;;;;9.70;2.65;;;;;;;;;;5005713;28;20128;-63
2024/01/01 02:36:50;;;;;;;4.80;2.47;;;;;;;;;;4997272;28;20065;-62
2024/01/01 02:39:18;;;;;;;9.32;2.60;;;;;;;;;;5003450;28;20069;-64
2024/01/01 02:41:45;;;;;;;4.25;2.38;;;;;;;;;;5001978;28;20042;-64
2024/01/01 02:44:11;;;;;;;6.07;2.95;;;;;;;;;;5001051;28;20045;-62
2024/01/01 02:46:37;;;;;;;3.47;2.45;;;;;;;;;;5000822;28;20188;-64
2024/01/01 02:49:03;;;;;;;5.13;2.75;;;;;;;;;;5007985;28;20419;-65
2024/01/01 02:51:30;;;;;;;5.03;2.70;;;;;;;;;;5007582;28;20134;-67
2024/01/01 02:53:56;;;;;;;5.40;2.40;;;;;;;;;;5002419;28;20057;-63
2024/01/01 02:56:24;;;;;;;8.90;2.38;;;;;;;;;;5002292;28;20057;-62
2024/01/01 02:58:50;;;;;;;3.78;2.53;;;;;;;;;;5001156;28;20053;-64
2024/01/01 03:01:18;;;;;;;3.78;2.45;;;;;;;;;;5003194;28;20129;-64
2024/01/01 03:03:44;;;;;;;4.07;2.55;;;;;;;;;;5004769;28;20046;-63
2024/01/01 03:06:13;;;;;;;3.17;2.25;;;;;;;;;;5007538;28;20038;-63
2024/01/01 03:08:39;;;;;;;6.70;3.17;;;;;;;;;;5006125;28;20137;-67
2024/01/01 03:11:08;;;;;;;3.53;2.38;;;;;;;;;;4994776;28;20047;-66
2024/01/01 03:13:34;;;;;;;4.50;2.42;;;;;;;;;;5001891;28;20129;-62
2024/01/01 03:16:02;;;;;;;4.38;2.38;;;;;;;;;;5012715;28;20357;-63
2024/01/01 03:18:31;;;;;;;5.22;2.28;;;;;;;;;;5009005;28;20138;-65
2024/01/01 03:20:58;;;;;;;3.75;2.67;;;;;;;;;;5009508;28;20120;-64
2024/01/01 03:23:24;;;;;;;3.67;2.40;;;;;;;;;;5009688;28;20053;-63
2024/01/01 03:25:50;;;;;;;4.38;2.45;;;;;;;;;;5005454;28;20046;-65
2024/01/01 03:28:16;;;;;;;4.00;2.28;;;;;;;;;;5001804;28;20431;-63
2024/01/01 03:30:44;;;;;;;3.85;2.00;;;;;;;;;;5008123;28;20407;-65
2024/01/01 03:33:11;;;;;;;3.78;1.90;;;;;;;;;;5008690;28;20058;-63
2024/01/01 03:35:37;;;;;;;4.82;2.05;;;;;;;;;;5007989;28;20050;-62
2024/01/01 03:38:04;;;;;;;3.35;2.20;;;;;;;;;;5011319;28;20069;-64
2024/01/01 03:40:30;;;;;;;2.63;1.70;;;;;;;;;;4999979;28;20063;-63
2024/01/01 03:42:57;;;;;;;4.32;2.50;;;;;;;;;;4999464;28;20042;-63
2024/01/01 03:45:23;;;;;;;3.92;1.75;;;;;;;;;;4998240;28;20046;-63
2024/01/01 03:47:49;;;;;;;2.80;2.00;;;;;;;;;;5004295;28;20123;-64
2024/01/01 03:50:16;;;;;;;3.97;2.10;;;;;;;;;;4999591;28;20054;-64
2024/01/01 03:52:43;;;;;;;3.72;1.83;;;;;;;;;;4999199;28;20046;-64
2024/01/01 03:55:09;;;;;;;5.30;2.17;;;;;;;;;;5002680;28;20599;-63
2024/01/01 03:57:35;;;;;;;3.35;1.88;;;;;;;;;;5008354;28;20137;-63
2024/01/01 04:00:04;;;;;;;5.97;2.10;;;;;;;;;;4996908;28;20144;-62
2024/01/01 04:02:31;;;;;;;3.75;2.10;;;;;;;;;;4999533;28;20050;-64
2024/01/01 04:04:57;;;;;;;5.60;2.35;;;;;;;;;;5002846;28;20057;-64
2024/01/01 04:07:25;;;;;;;3.25;2.25;;;;;;;;;;5002970;28;20050;-65
2024/01/01 04:09:54;;;;;;;3.13;2.22;;;;;;;;;;5002267;28;20046;-64
2024/01/01 04:12:20;;;;;;;3.03;1.90;;;;;;;;;;5003888;28;20078;-63
2024/01/01 04:14:48;;;;;;;3.78;2.17;;;;;;;;;;5010633;28;20096;-63
2024/01/01 04:17:13;;;;;;;4.45;2.33;;;;;;;;;;5002368;28;20459;-65
2024/01/01 04:19:44;;;;;;;3.88;2.40;;;;;;;;;;4999327;28;20054;-62
2024/01/01 04:22:10;;;;;;;2.92;1.83;;;;;;;;;;5004492;28;20049;-65
2024/01/01 04:24:36;;;;;;;4.82;2.05;;;;;;;;;;5008856;28;20061;-62
2024/01/01 04:27:03;;;;;;;5.25;2.08;;;;;;;;;;5007593;28;20088;-64
2024/01/01 04:29:29;;;;;;;3.30;1.90;;;;;;;;;;5004035;28;20061;-68
2024/01/01 04:31:55;;;;;;;3.28;1.75;;;;;;;;;;5008044;28;20486;-65
2024/01/01 04:34:21;;;;;;;2.25;1.70;;;;;;;;;;5007453;28;20546;-62
2024/01/01 04:36:47;;;;;;;3.10;1.92;;;;;;;;;;5003316;28;20138;-64
2024/01/01 04:39:13;;;;;;;4.38;1.98;;;;;;;;;;5003294;28;20555;-62
2024/01/01 04:41:40;;;;;;;3.65;1.63;;;;;;;;;;5003950;28;20132;-62
2024/01/01 04:44:06;;;;;;;4.50;1.70;;;;;;;;;;5005720;28;20356;-64
2024/01/01 04:46:32;;;;;;;3.55;1.90;;;;;;;;;;4999047;28;20054;-62
2024/01/01 04:48:59;;;;;;;2.20;1.60;;;;;;;;;;5002539;28;20089;-63
2024/01/01 04:51:26;;;;;;;4.38;2.15;;;;;;;;;;5002553;28;20096;-62
2024/01/01 04:53:52;;;;;;;4.43;1.95;;;;;;;;;;5001346;28;21516;-63
2024/01/01 04:56:19;;;;;;;4.78;1.67;;;;;;;;;;4999111;28;20059;-62
2024/01/01 04:58:45;;;;;;;5.38;1.98;;;;;;;;;;5006840;28;20065;-62
2024/01/01 05:01:12;;;;;;;3.60;1.90;;;;;;;;;;5006165;28;20109;-65
2024/01/01 05:03:38;;;;;;;4.93;2.00;;;;;;;;;;5004594;28;20057;-64
2024/01/01 05:06:04;;;;;;;3.38;1.98;;;;;;;;;;5000121;28;20042;-63
2024/01/01 05:08:32;;;;;;;3.05;2.25;;;;;;;;;;5003415;28;20053;-61
2024/01/01 05:10:58;;;;;;;2.13;1.70;;;;;;;;;;4993466;28;20116;-63
2024/01/01 05:13:24;;;;;;;3.33;1.83;;;;;;;;;;5000234;28;20061;-63
2024/01/01 05:15:50;;;;;;;3.00;1.90;;;;;;;;;;5001314;28;20046;-64
2024/01/01 05:18:17;;;;;;;3.22;1.80;;;;;;;;;;5005346;28;20081;-63
2024/01/01 05:20:43;;;;;;;3.78;1.70;;;;;;;;;;5001086;28;20073;-64
2024/01/01 05:23:09;;;;;;;3.35;1.80;;;;;;;;;;5009234;28;20132;-63
2024/01/01 05:25:35;;;;;;;3.67;2.20;;;;;;;;;;5004626;28;20050;-62
2024/01/01 05:28:02;;;;;;;3.63;1.90;;;;;;;;;;5004578;28;20050;-64
2024/01/01 05:30:31;;;;;;;3.30;1.60;;;;;;;;;;5000192;28;20412;-64
2024/01/01 05:32:58;;;;;;;2.40;1.73;;;;;;;;;;5000926;28;20053;-63
2024/01/01 05:35:24;;;;;;;2.58;1.67;;;;;;;;;;4999061;28;20545;-63
2024/01/01 05:37:51;;;;;;;5.00;2.42;;;;;;;;;;5006762;28;20050;-64
2024/01/01 05:40:18;;;;;;;3.20;1.90;;;;;;;;;;4997483;28;20518;-66
2024/01/01 05:42:44;;;;;;;2.53;1.70;;;;;;;;;;4999029;28;20538;-62
2024/01/01 05:45:11;;;;;;;3.78;1.80;;;;;;;;;;4999960;28;20074;-64
2024/01/01 05:47:38;;;;;;;2.53;1.63;;;;;;;;;;5003564;28;20061;-64
2024/01/01 05:50:05;;;;;;;3.15;1.90;;;;;;;;;;4996143;28;20427;-63
2024/01/01 05:52:31;;;;;;;2.72;1.70;;;;;;;;;;5006424;28;20106;-63
2024/01/01 05:54:58;;;;;;;3.28;1.70;;;;;;;;;;5007918;28;20411;-62
2024/01/01 05:57:24;;;;;;;4.05;1.80;;;;;;;;;;4995833;28;20054;-61
2024/01/01 05:59:50;;;;;;;2.85;1.60;;;;;;;;;;5000751;28;20125;-62
2024/01/01 06:02:16;;;;;;;4.75;1.95;;;;;;;;;;5017336;28;20431;-63
2024/01/01 06:04:43;;;;;;;4.10;1.83;;;;;;;;;;5003107;28;20431;-62
2024/01/01 06:07:09;;;;;;;3.47;2.00;;;;;;;;;;5004340;28;20058;-65
2024/01/01 06:09:36;;;;;;;3.00;1.75;;;;;;;;;;5002053;28;20046;-62
2024/01/01 06:12:02;;;;;;;4.93;1.83;;;;;;;;;;5002673;28;20049;-61
2024/01/01 06:14:28;;;;;;;3.42;1.67;;;;;;;;;;5001961;28;20076;-63
2024/01/01 06:16:57;;;;;;;3.78;1.83;;;;;;;;;;5002211;28;20076;-62
2024/01/01 06:19:23;;;;;;;4.00;2.05;;;;;;;;;;5003486;28;20104;-65
2024/01/01 06:21:49;;;;;;;2.88;1.88;;;;;;;;;;5002607;28;20522;-62
2024/01/01 06:24:15;;;;;;;2.97;1.80;;;;;;;;;;5001931;28;20058;-64
2024/01/01 06:26:42;;;;;;;4.53;1.88;;;;;;;;;;5002621;28;20046;-64
2024/01/01 06:29:10;;;;;;;6.22;2.13;;;;;;;;;;5006257;28;20271;-64
2024/01/01 06:31:37;;;;;;;3.50;2.08;;;;;;;;;;5003726;28;20062;-64
2024/01/01 06:34:03;;;;;;;3.55;1.77;;;;;;;;;;5007890;28;20749;-63
2024/01/01 06:36:29;;;;;;;3.47;1.80;;;;;;;;;;5003844;28;20076;-63
2024/01/01 06:38:55;;;;;;;3.55;1.70;;;;;;;;;;5018305;28;20495;-62
2024/01/01 06:41:22;;;;;;;2.45;1.58;;;;;;;;;;4996337;28;20056;-62
2024/01/01 06:43:48;;;;;;;5.22;2.15;;;;;;;;;;5008063;28;20060;-64
2024/01/01 06:46:15;;;;;;;5.53;1.98;;;;;;;;;;5000317;28;20147;-63
2024/01/01 06:48:42;;;;;;;2.55;1.92;;;;;;;;;;5002314;28;20054;-61
2024/01/01 06:51:10;;;;;;;2.85;1.80;;;;;;;;;;4999827;28;20057;-63
2024/01/01 06:53:36;;;;;;;2.65;1.83;;;;;;;;;;4997479;28;20057;-62
2024/01/01 06:56:03;;;;;;;7.35;2.42;;;;;;;;;;5001930;28;20515;-62
2024/01/01 06:58:29;;;;;;;4.57;2.15;;;;;;;;;;5000527;28;20050;-64
2024/01/01 07:00:55;;;;;;;4.15;2.20;;;;;;;;;;5003056;28;20042;-62
2024/01/01 07:03:22;;;;;;;4.18;1.75;;;;;;;;;;4997049;28;20042;-64
2024/01/01 07:05:49;;;;;;;3.90;2.03;;;;;;;;;;5002123;28;20046;-63
2024/01/01 07:08:14;;;;;;;4.07;2.03;;;;;;;;;;5004352;28;20115;-64
2024/01/01 07:10:41;;;;;;;6.68;2.25;;;;;;;;;;5001992;28;20080;-64
2024/01/01 07:13:07;;;;;;;3.22;1.98;;;;;;;;;;4998810;28;20513;-63
2024/01/01 07:15:34;;;;;;;4.28;1.98;;;;;;;;;;5009051;28;20073;-65
2024/01/01 07:18:00;;;;;;;3.63;2.00;;;;;;;;;;5001577;28;20488;-64
2024/01/01 07:20:27;;;;;;;2.95;1.77;;;;;;;;;;5008881;28;20720;-63
2024/01/01 07:22:53;;;;;;;4.30;2.00;;;;;;;;;;4983421;28;20144;-64
2024/01/01 07:25:19;;;;;;;4.32;1.65;;;;;;;;;;5002915;28;20120;-63
2024/01/01 07:27:45;;;;;;;4.57;1.88;;;;;;;;;;4998662;28;20057;-64
2024/01/01 07:30:11;;;;;;;3.05;1.65;;;;;;;;;;4999283;28;20536;-64
2024/01/01 07:32:40;;;;;;;2.72;1.67;;;;;;;;;;4997056;28;20074;-64
2024/01/01 07:35:08;;;;;;;5.72;1.85;;;;;;;;;;5001262;28;20042;-63
2024/01/01 07:37:38;;;;;;;5.00;1.88;;;;;;;;;;5002874;28;20064;-62
2024/01/01 07:40:06;;;;;;;4.25;1.77;;;;;;;;;;4985621;28;20089;-63
2024/01/01 07:42:32;;;;;;;3.75;1.92;;;;;;;;;;5002829;28;20053;-64
2024/01/01 07:45:00;;;;;;;5.75;1.70;;;;;;;;;;4994694;28;20046;-63
2024/01/01 07:47:26;;;;;;;3.28;1.75;;;;;;;;;;5005207;28;20419;-63
2024/01/01 07:49:52;;;;;;;6.75;1.92;;;;;;;;;;5003576;28;20061;-62
2024/01/01 07:52:18;;;;;;;3.50;1.88;;;;;;;;;;5002144;28;20049;-63
2024/01/01 07:54:45;;;;;;;2.58;1.60;;;;;;;;;;4998398;28;20045;-64
2024/01/01 07:57:12;;;;;;;3.58;1.60;;;;;;;;;;5001473;28;20070;-63
2024/01/01 07:59:40;;;;;;;3.80;1.70;;;;;;;;;;5000073;28;20058;-64
2024/01/01 08:02:06;;;;;;;3.08;1.67;;;;;;;;;;5011249;28;20033;-63
2024/01/01 08:04:34;;;;;;;3.72;1.55;;;;;;;;;;5002913;28;20041;-63
2024/01/01 08:07:01;;;;;;;4.70;1.48;;;;;;;;;;5007369;28;20042;-63
2024/01/01 08:09:27;;;;;;;2.72;1.50;;;;;;;;;;4996540;28;20060;-65
2024/01/01 08:11:54;;;;;;;3.45;1.58;;;;;;;;;;5002186;28;20463;-63
2024/01/01 08:14:20;;;;;;;3.72;1.70;;;;;;;;;;5002296;28;20076;-64
2024/01/01 08:16:47;;;;;;;5.13;1.70;;;;;;;;;;5000688;28;20064;-66
2024/01/01 08:19:13;;;;;;;3.88;1.60;;;;;;;;;;5005602;28;20061;-67
2024/01/01 08:21:39;;;;;;;3.80;1.70;;;;;;;;;;5010540;28;20075;-64
2024/01/01 08:24:05;;;;;;;4.00;1.52;;;;;;;;;;5000497;28;20088;-65
2024/01/01 08:26:31;;;;;;;5.10;1.70;;;;;;;;;;5002043;28;20510;-64
2024/01/01 08:28:59;;;;;;;2.30;1.40;;;;;;;;;;5001449;28;20057;-65
2024/01/01 08:31:24;;;;;;;6.70;1.60;;;;;;;;;;5000264;28;20514;-64
2024/01/01 08:33:50;;;;;;;3.83;1.50;;;;;;;;;;4999084;28;20115;-64
2024/01/01 08:36:20;;;;;;;4.20;1.60;;;;;;;;;;4998408;28;20531;-63
2024/01/01 08:38:46;;;;;;;2.85;1.60;;;;;;;;;;5001254;28;20050;-66
2024/01/01 08:41:13;;;;;;;11.20;1.75;;;;;;;;;;5000603;28;20049;-63
2024/01/01 08:43:39;;;;;;;5.07;1.63;;;;;;;;;;4999613;28;20573;-64
2024/01/01 08:46:05;;;;;;;8.95;1.85;;;;;;;;;;5002387;28;20046;-64
2024/01/01 08:48:33;;;;;;;3.80;1.77;;;;;;;;;;5003964;28;20046;-65
2024/01/01 08:50:59;;;;;;;4.15;1.58;;;;;;;;;;5003445;28;20057;-66
2024/01/01 08:53:29;;;;;;;4.65;1.70;;;;;;;;;;5004111;28;20058;-64
2024/01/01 08:55:58;;;;;;;4.70;1.67;;;;;;;;;;5017390;28;20046;-64
2024/01/01 08:58:33;;;;;;;9.63;2.30;;;;;;;;;;5003098;28;20057;-63
2024/01/01 09:01:00;;;;;;;3.47;2.00;;;;;;;;;;4994083;28;20061;-65
2024/01/01 09:03:30;;;;;;;3.25;1.90;;;;;;;;;;4997932;28;20066;-64
2024/01/01 09:05:57;;;;;;;5.63;1.60;;;;;;;;;;4990989;28;20057;-65
2024/01/01 09:08:24;;;;;;;2.53;1.60;;;;;;;;;;4998171;28;20547;-64
2024/01/01 09:10:50;;;;;;;2.97;1.58;;;;;;;;;;5002335;28;20053;-67
2024/01/01 09:13:24;;;;;;;5.30;1.80;;;;;;;;;;4993110;28;20507;-67
2024/01/01 09:15:52;;;;;;;7.68;2.72;;;;;;;;;;5002145;28;20097;-64
2024/01/01 09:18:19;;;;;;;6.68;3.22;;;;;;;;;;4997985;28;20056;-65
2024/01/01 09:20:45;;;;;;;7.75;3.63;;;;;;;;;;5010929;28;20053;-66
2024/01/01 09:23:15;;;;;;;8.05;3.90;;;;;;;;;;4997322;28;20118;-66
2024/01/01 09:25:43;;;;;;;12.93;5.20;;;;;;;;;;4989983;28;20085;-64
2024/01/01 09:28:09;;;;;;;8.45;4.15;;;;;;;;;;4992589;28;22643;-66
2024/01/01 09:30:35;;;;;;;11.45;4.63;;;;;;;;;;4994493;28;20511;-62
2024/01/01 09:33:02;;;;;;;10.00;4.80;;;;;;;;;;4987873;28;20132;-64
2024/01/01 09:35:28;;;;;;;10.52;4.32;;;;;;;;;;4987586;28;20049;-65
2024/01/01 09:38:02;;;;;;;16.60;4.43;;;;;;;;;;4992511;28;20501;-66
2024/01/01 09:40:28;;;;;;;12.20;5.57;;;;;;;;;;4991673;28;20104;-64
2024/01/01 09:42:54;;;;;;;12.05;6.00;;;;;;;;;;4990698;28;20310;-65
2024/01/01 09:45:20;;;;;;;10.80;5.55;;;;;;;;;;4996469;28;20058;-65
2024/01/01 09:47:47;;;;;;;11.15;5.18;;;;;;;;;;4993553;28;20140;-64
2024/01/01 09:50:12;;;;;;;9.82;4.78;;;;;;;;;;5000248;28;20045;-63
2024/01/01 09:52:42;;;;;;;9.60;5.05;;;;;;;;;;4999671;28;20053;-65
2024/01/01 09:55:09;;;;;;;10.23;4.70;;;;;;;;;;4995562;28;20049;-65
2024/01/01 09:57:39;;;;;;;12.48;6.07;;;;;;;;;;4996431;28;20061;-68
2024/01/01 10:00:19;;;;;;;17.20;6.10;;;;;;;;;;4997012;28;20060;-62
2024/01/01 10:02:48;;;;;;;9.75;4.78;;;;;;;;;;4998806;28;20054;-65
2024/01/01 10:05:15;;;;;;;10.52;3.65;;;;;;;;;;4999434;28;20053;-64
2024/01/01 10:07:42;;;;;;;8.35;3.20;;;;;;;;;;5004091;28;20444;-65
2024/01/01 10:10:09;;;;;;;6.07;2.58;;;;;;;;;;4997460;28;20053;-67
2024/01/01 10:12:37;;;;;;;5.43;2.83;;;;;;;;;;5001024;28;20588;-68
2024/01/01 10:15:06;;;;;;;7.10;3.17;;;;;;;;;;5006944;28;20478;-69
2024/01/01 10:17:33;;;;;;;6.60;2.40;;;;;;;;;;4998250;28;20117;-69
2024/01/01 10:20:03;;;;;;;6.95;2.40;;;;;;;;;;4996682;28;20377;-66
2024/01/01 10:22:31;;;;;;;7.28;2.72;;;;;;;;;;4996840;28;20061;-66
2024/01/01 10:25:14;;;;;;;6.28;2.38;;;;;;;;;;4994025;28;20056;-65
2024/01/01 10:27:43;;;;;;;4.32;2.10;;;;;;;;;;4997331;28;20060;-62
2024/01/01 10:30:10;;;;;;;6.40;2.78;;;;;;;;;;4997168;28;20058;-63
2024/01/01 10:32:38;;;;;;;4.40;2.17;;;;;;;;;;5012957;28;20085;-64
2024/01/01 10:35:06;;;;;;;8.10;2.20;;;;;;;;;;4995323;28;20531;-64
2024/01/01 10:37:33;;;;;;;7.22;2.80;;;;;;;;;;4996299;28;20507;-62
2024/01/01 10:40:05;;;;;;;5.53;2.40;;;;;;;;;;4991783;28;20053;-66
2024/01/01 10:42:33;;;;;;;6.55;2.50;;;;;;;;;;5000641;28;20061;-65
2024/01/01 10:45:04;;;;;;;5.68;2.58;;;;;;;;;;4999866;28;20082;-64
2024/01/01 10:47:32;;;;;;;5.10;2.70;;;;;;;;;;4996177;28;20450;-66
2024/01/01 10:50:13;;;;;;;8.88;2.75;;;;;;;;;;4992270;28;20139;-64
2024/01/01 10:53:13;;;;;;;7.70;3.50;;;;;;;;;;4992315;28;20112;-65
2024/01/01 10:56:04;;;;;;;9.85;3.70;;;;;;;;;;4991691;28;20046;-66
2024/01/01 10:58:57;;;;;;;8.95;3.60;;;;;;;;;;4995212;28;20054;-67
2024/01/01 11:01:24;;;;;;;6.28;3.30;;;;;;;;;;4997479;28;20338;-64
2024/01/01 11:03:51;;;;;;;8.10;3.10;;;;;;;;;;5001096;28;20065;-66
2024/01/01 11:06:27;;;;;;;11.07;3.05;;;;;;;;;;4995891;28;20123;-64
2024/01/01 11:08:54;;;;;;;10.20;3.45;;;;;;;;;;4996457;28;20050;-64
2024/01/01 11:11:27;;;;;;;11.20;3.67;;;;;;;;;;4996544;28;20054;-61
2024/01/01 11:13:54;;;;;;;8.90;3.53;;;;;;;;;;5001683;28;20088;-67
2024/01/01 11:16:21;;;;;;;8.95;3.05;;;;;;;;;;4999804;28;20496;-65
2024/01/01 11:18:48;;;;;;;17.70;3.25;;;;;;;;;;4991958;28;20058;-64
2024/01/01 11:21:29;;;;;;;4.78;2.15;;;;;;;;;;4994857;28;20673;-66
2024/01/01 11:24:02;;;;;;;6.50;2.28;;;;;;;;;;4998646;28;20065;-65
2024/01/01 11:26:34;;;;;;;5.40;2.28;;;;;;;;;;4992674;28;20054;-64
2024/01/01 11:29:26;;;;;;;5.32;2.08;;;;;;;;;;5005020;28;20064;-68
2024/01/01 11:32:03;;;;;;;5.25;1.55;;;;;;;;;;5000045;28;20448;-73
2024/01/01 11:34:29;;;;;;;5.45;1.92;;;;;;;;;;5002841;28;20211;-67
2024/01/01 11:36:55;;;;;;;4.30;1.48;;;;;;;;;;4990461;28;20045;-66
2024/01/01 11:39:24;;;;;;;3.45;1.80;;;;;;;;;;4994780;28;20601;-68
2024/01/01 11:41:52;;;;;;;6.32;1.92;;;;;;;;;;4998446;28;20530;-65
2024/01/01 11:44:18;;;;;;;5.53;1.83;;;;;;;;;;5006280;28;20057;-66
2024/01/01 11:46:46;;;;;;;7.18;2.05;;;;;;;;;;5005143;28;20151;-68
2024/01/01 11:49:12;;;;;;;4.18;1.73;;;;;;;;;;5002517;28;20058;-66
2024/01/01 11:52:00;;;;;;;3.75;1.63;;;;;;;;;;5008331;28;20053;-64
2024/01/01 11:54:26;;;;;;;3.83;1.27;;;;;;;;;;5007777;28;20072;-74
2024/01/01 11:56:59;;;;;;;5.63;1.60;;;;;;;;;;5007624;28;20144;-66
2024/01/01 11:59:29;;;;;;;3.90;1.48;;;;;;;;;;5012280;28;20061;-68
2024/01/01 12:01:57;;;;;;;6.88;1.40;;;;;;;;;;5004412;28;20592;-68
2024/01/01 12:04:25;;;;;;;5.75;2.03;;;;;;;;;;5008124;28;20790;-67
2024/01/01 12:06:52;;;;;;;5.38;1.33;;;;;;;;;;5001025;28;20058;-67
2024/01/01 12:09:19;;;;;;;2.58;1.52;;;;;;;;;;5006127;28;20053;-67
2024/01/01 12:11:47;;;;;;;4.93;1.77;;;;;;;;;;5003088;28;20069;-66
2024/01/01 12:14:14;;;;;;;4.32;1.70;;;;;;;;;;5003505;28;20058;-67
2024/01/01 12:16:42;;;;;;;4.40;1.70;;;;;;;;;;5009904;28;20077;-69
2024/01/01 12:19:12;;;;;;;4.47;1.70;;;;;;;;;;5000531;28;20061;-68
2024/01/01 12:21:44;;;;;;;5.32;1.55;;;;;;;;;;5009119;28;20041;-67
2024/01/01 12:24:20;;;;;;;2.72;1.45;;;;;;;;;;5007264;28;20065;-68
2024/01/01 12:26:50;;;;;;;3.05;1.30;;;;;;;;;;5003599;28;20049;-67
2024/01/01 12:29:20;;;;;;;3.90;1.48;;;;;;;;;;5009357;28;20064;-68
2024/01/01 12:31:48;;;;;;;2.08;1.20;;;;;;;;;;4999962;28;20054;-67
2024/01/01 12:34:16;;;;;;;3.95;1.60;;;;;;;;;;5006895;28;20049;-68
2024/01/01 12:36:45;;;;;;;3.65;1.63;;;;;;;;;;5010851;28;20061;-69
2024/01/01 12:39:11;;;;;;;3.55;1.60;;;;;;;;;;5011665;28;20057;-67
2024/01/01 12:41:38;;;;;;;2.67;1.30;;;;;;;;;;4997607;28;20049;-70
2024/01/01 12:44:06;;;;;;;11.32;1.40;;;;;;;;;;5009119;28;20401;-69
2024/01/01 12:46:32;;;;;;;3.85;1.40;;;;;;;;;;5009607;28;20054;-67
2024/01/01 12:49:01;;;;;;;3.00;1.40;;;;;;;;;;5007970;28;20046;-69
2024/01/01 12:51:29;;;;;;;5.88;2.00;;;;;;;;;;5003417;28;20057;-69
2024/01/01 12:53:57;;;;;;;8.35;2.47;;;;;;;;;;5004048;28;20046;-67
2024/01/01 12:56:24;;;;;;;4.38;1.23;;;;;;;;;;5004477;28;20049;-69
2024/01/01 12:58:54;;;;;;;3.03;1.13;;;;;;;;;;5005176;28;20138;-68
2024/01/01 13:01:23;;;;;;;3.80;1.48;;;;;;;;;;5012307;28;20060;-68
2024/01/01 13:03:50;;;;;;;7.53;2.67;;;;;;;;;;5009878;28;20077;-68
2024/01/01 13:06:19;;;;;;;3.40;1.70;;;;;;;;;;5000231;28;20057;-69
2024/01/01 13:08:47;;;;;;;5.30;1.42;;;;;;;;;;4999410;28;20857;-68
2024/01/01 13:11:16;;;;;;;4.18;1.30;;;;;;;;;;4999777;28;20208;-68
2024/01/01 13:13:58;;;;;;;3.60;1.35;;;;;;;;;;5001559;28;20065;-69
2024/01/01 13:16:24;;;;;;;5.43;1.38;;;;;;;;;;5005453;28;20092;-68
2024/01/01 13:18:50;;;;;;;2.67;1.23;;;;;;;;;;5008235;28;20053;-68
2024/01/01 13:21:17;;;;;;;4.05;1.55;;;;;;;;;;5002532;28;20070;-68
2024/01/01 13:23:43;;;;;;;3.67;1.85;;;;;;;;;;5011244;28;20055;-68
2024/01/01 13:26:09;;;;;;;4.55;1.55;;;;;;;;;;4996505;28;20121;-68
2024/01/01 13:28:36;;;;;;;4.78;1.30;;;;;;;;;;5006018;28;20137;-69
2024/01/01 13:31:03;;;;;;;3.17;1.17;;;;;;;;;;5006681;28;20056;-67
2024/01/01 13:33:28;;;;;;;4.47;1.50;;;;;;;;;;5007971;28;20061;-67
2024/01/01 13:35:55;;;;;;;3.17;1.40;;;;;;;;;;5002950;28;20049;-68
2024/01/01 13:38:21;;;;;;;4.10;1.40;;;;;;;;;;4996049;28;20104;-69
2024/01/01 13:40:51;;;;;;;4.50;1.88;;;;;;;;;;5001873;28;20140;-67
2024/01/01 13:43:19;;;;;;;4.43;1.63;;;;;;;;;;4999054;28;20053;-68
2024/01/01 13:45:45;;;;;;;6.82;1.63;;;;;;;;;;5007435;28;20067;-68
2024/01/01 13:48:14;;;;;;;3.60;1.30;;;;;;;;;;5000723;28;20066;-69
2024/01/01 13:50:44;;;;;;;4.45;1.50;;;;;;;;;;5000970;28;20504;-69
2024/01/01 13:53:09;;;;;;;1.95;1.00;;;;;;;;;;5008863;28;20037;-69
2024/01/01 13:55:37;;;;;;;9.00;1.40;;;;;;;;;;5003838;28;20124;-67
2024/01/01 13:58:06;;;;;;;2.45;1.20;;;;;;;;;;4997671;28;20775;-69
2024/01/01 14:00:37;;;;;;;3.78;2.38;;;;;;;;;;5009196;28;20092;-68
2024/01/01 14:03:03;;;;;;;4.88;1.80;;;;;;;;;;5006751;28;20140;-68
2024/01/01 14:05:30;;;;;;;3.80;2.10;;;;;;;;;;5007399;28;20080;-67
2024/01/01 14:07:57;;;;;;;4.93;2.40;;;;;;;;;;5000908;28;20101;-68
2024/01/01 14:10:24;;;;;;;7.72;2.50;;;;;;;;;;4997694;28;20144;-68
2024/01/01 14:12:51;;;;;;;5.05;2.42;;;;;;;;;;4988132;28;20539;-66
2024/01/01 14:15:23;;;;;;;4.80;2.70;;;;;;;;;;5009011;28;20126;-67
2024/01/01 14:17:53;;;;;;;7.22;2.72;;;;;;;;;;5011649;28;20060;-67
2024/01/01 14:20:22;;;;;;;7.78;2.45;;;;;;;;;;5010299;28;20061;-71
2024/01/01 14:22:48;;;;;;;8.00;3.20;;;;;;;;;;5002552;28;20068;-71
2024/01/01 14:25:18;;;;;;;4.88;2.47;;;;;;;;;;5005048;28;20108;-71
2024/01/01 14:27:47;;;;;;;7.72;2.50;;;;;;;;;;5005532;28;20054;-68
2024/01/01 14:30:19;;;;;;;6.43;2.10;;;;;;;;;;5004481;28;20062;-68
2024/01/01 14:32:50;;;;;;;6.22;2.22;;;;;;;;;;5005034;28;20041;-68
2024/01/01 14:35:18;;;;;;;7.50;2.13;;;;;;;;;;4995227;28;20150;-68
2024/01/01 14:37:46;;;;;;;4.90;1.83;;;;;;;;;;5003015;28;20041;-70
2024/01/01 14:40:15;;;;;;;5.45;2.00;;;;;;;;;;5006359;28;20473;-68
2024/01/01 14:42:43;;;;;;;6.18;2.17;;;;;;;;;;5006112;28;20187;-68
2024/01/01 14:45:10;;;;;;;5.22;1.98;;;;;;;;;;5004240;28;20054;-67
2024/01/01 14:47:37;;;;;;;6.72;2.60;;;;;;;;;;5004212;28;20073;-69